<?xml version="1.0" encoding="UTF-8" standalone="no" ?>
<gpx xmlns="http://www.topografix.com/GPX/1/1" xmlns:xsi="http://www.w3.org/2001/XMLSchema-instance" xsi:schemaLocation="http://www.topografix.com/GPX/1/1 http://www.topografix.com/GPX/1/1/gpx.xsd" version="1.1" creator="VisuGPX - https://www.visugpx.com">
  <metadata>
    <name>SityTrail - SityTrail - La Mortice-2015-06-18</name>
  </metadata>
  <trk>
    <name><![CDATA[SityTrail - SityTrail - La Mortice-2015-06-18]]></name>
    <trkseg>
      <trkpt lat="44.54071" lon="6.78426">
        <ele>1637</ele>
        <time>2015-06-18T00:16:18.420Z</time>
      </trkpt>
      <trkpt lat="44.54071" lon="6.78426">
        <ele>1637</ele>
        <time>2015-06-18T00:17:18.420Z</time>
      </trkpt>
      <trkpt lat="44.54071" lon="6.78416">
        <ele>1637</ele>
        <time>2015-06-18T00:18:19.320Z</time>
      </trkpt>
      <trkpt lat="44.54072" lon="6.78406">
        <ele>1637</ele>
        <time>2015-06-18T00:19:20.420Z</time>
      </trkpt>
      <trkpt lat="44.54072" lon="6.78396">
        <ele>1641</ele>
        <time>2015-06-18T00:20:21.420Z</time>
      </trkpt>
      <trkpt lat="44.54073" lon="6.78381">
        <ele>1641</ele>
        <time>2015-06-18T00:21:22.320Z</time>
      </trkpt>
      <trkpt lat="44.54075" lon="6.78352">
        <ele>1645</ele>
        <time>2015-06-18T00:22:22.320Z</time>
      </trkpt>
      <trkpt lat="44.54074" lon="6.78339">
        <ele>1651</ele>
        <time>2015-06-18T00:23:22.320Z</time>
      </trkpt>
      <trkpt lat="44.54071" lon="6.78327">
        <ele>1651</ele>
        <time>2015-06-18T00:24:22.320Z</time>
      </trkpt>
      <trkpt lat="44.54072" lon="6.78296">
        <ele>1659</ele>
        <time>2015-06-18T00:25:22.300Z</time>
      </trkpt>
      <trkpt lat="44.54071" lon="6.78296">
        <ele>1659</ele>
        <time>2015-06-18T00:26:22.420Z</time>
      </trkpt>
      <trkpt lat="44.54071" lon="6.78296">
        <ele>1659</ele>
        <time>2015-06-18T00:27:22.350Z</time>
      </trkpt>
      <trkpt lat="44.54071" lon="6.78296">
        <ele>1659</ele>
        <time>2015-06-18T00:28:23.320Z</time>
      </trkpt>
      <trkpt lat="44.54072" lon="6.78296">
        <ele>1659</ele>
        <time>2015-06-18T00:29:05.620Z</time>
      </trkpt>
      <trkpt lat="44.54073" lon="6.78286">
        <ele>1664</ele>
        <time>2015-06-18T00:30:04.400Z</time>
      </trkpt>
      <trkpt lat="44.54076" lon="6.78277">
        <ele>1664</ele>
        <time>2015-06-18T00:31:04.420Z</time>
      </trkpt>
      <trkpt lat="44.54081" lon="6.78259">
        <ele>1665</ele>
        <time>2015-06-18T00:32:05.320Z</time>
      </trkpt>
      <trkpt lat="44.54084" lon="6.7825">
        <ele>1665</ele>
        <time>2015-06-18T00:33:04.400Z</time>
      </trkpt>
      <trkpt lat="44.5409" lon="6.78238">
        <ele>1665</ele>
        <time>2015-06-18T00:34:05.280Z</time>
      </trkpt>
      <trkpt lat="44.541" lon="6.78219">
        <ele>1681</ele>
        <time>2015-06-18T00:35:04.400Z</time>
      </trkpt>
      <trkpt lat="44.54101" lon="6.78217">
        <ele>1681</ele>
        <time>2015-06-18T00:36:04.420Z</time>
      </trkpt>
      <trkpt lat="44.54101" lon="6.78217">
        <ele>1681</ele>
        <time>2015-06-18T00:37:04.400Z</time>
      </trkpt>
      <trkpt lat="44.54101" lon="6.78217">
        <ele>1681</ele>
        <time>2015-06-18T00:38:04.420Z</time>
      </trkpt>
      <trkpt lat="44.54101" lon="6.78217">
        <ele>1681</ele>
        <time>2015-06-18T00:39:07.400Z</time>
      </trkpt>
      <trkpt lat="44.54101" lon="6.78217">
        <ele>1681</ele>
        <time>2015-06-18T00:40:04.420Z</time>
      </trkpt>
      <trkpt lat="44.54105" lon="6.78206">
        <ele>1681</ele>
        <time>2015-06-18T00:41:04.300Z</time>
      </trkpt>
      <trkpt lat="44.54113" lon="6.78188">
        <ele>1681</ele>
        <time>2015-06-18T00:42:04.520Z</time>
      </trkpt>
      <trkpt lat="44.54119" lon="6.78175">
        <ele>1680</ele>
        <time>2015-06-18T00:43:04.420Z</time>
      </trkpt>
      <trkpt lat="44.54125" lon="6.78161">
        <ele>1680</ele>
        <time>2015-06-18T00:44:04.420Z</time>
      </trkpt>
      <trkpt lat="44.5413" lon="6.7815">
        <ele>1696</ele>
        <time>2015-06-18T00:45:04.420Z</time>
      </trkpt>
      <trkpt lat="44.5413" lon="6.7815">
        <ele>1696</ele>
        <time>2015-06-18T00:46:04.420Z</time>
      </trkpt>
      <trkpt lat="44.5413" lon="6.7815">
        <ele>1696</ele>
        <time>2015-06-18T00:47:06.420Z</time>
      </trkpt>
      <trkpt lat="44.5413" lon="6.7815">
        <ele>1696</ele>
        <time>2015-06-18T00:48:04.420Z</time>
      </trkpt>
      <trkpt lat="44.5413" lon="6.7815">
        <ele>1696</ele>
        <time>2015-06-18T00:49:04.420Z</time>
      </trkpt>
      <trkpt lat="44.54133" lon="6.78144">
        <ele>1696</ele>
        <time>2015-06-18T00:50:06.400Z</time>
      </trkpt>
      <trkpt lat="44.54138" lon="6.78128">
        <ele>1696</ele>
        <time>2015-06-18T00:51:04.520Z</time>
      </trkpt>
      <trkpt lat="44.54142" lon="6.78122">
        <ele>1698</ele>
        <time>2015-06-18T00:52:04.420Z</time>
      </trkpt>
      <trkpt lat="44.54155" lon="6.78107">
        <ele>1714</ele>
        <time>2015-06-18T00:53:07.420Z</time>
      </trkpt>
      <trkpt lat="44.54165" lon="6.78095">
        <ele>1715</ele>
        <time>2015-06-18T00:54:04.420Z</time>
      </trkpt>
      <trkpt lat="44.54171" lon="6.7809">
        <ele>1715</ele>
        <time>2015-06-18T00:55:04.420Z</time>
      </trkpt>
      <trkpt lat="44.54176" lon="6.78084">
        <ele>1715</ele>
        <time>2015-06-18T00:56:04.420Z</time>
      </trkpt>
      <trkpt lat="44.54179" lon="6.78079">
        <ele>1715</ele>
        <time>2015-06-18T00:57:04.420Z</time>
      </trkpt>
      <trkpt lat="44.54182" lon="6.78073">
        <ele>1733</ele>
        <time>2015-06-18T00:58:04.510Z</time>
      </trkpt>
      <trkpt lat="44.54187" lon="6.7806">
        <ele>1728</ele>
        <time>2015-06-18T00:59:05.220Z</time>
      </trkpt>
      <trkpt lat="44.54193" lon="6.78049">
        <ele>1728</ele>
        <time>2015-06-18T01:00:05.220Z</time>
      </trkpt>
      <trkpt lat="44.542" lon="6.78036">
        <ele>1723</ele>
        <time>2015-06-18T01:01:04.420Z</time>
      </trkpt>
      <trkpt lat="44.54201" lon="6.78034">
        <ele>1723</ele>
        <time>2015-06-18T01:02:06.420Z</time>
      </trkpt>
      <trkpt lat="44.54201" lon="6.78034">
        <ele>1723</ele>
        <time>2015-06-18T01:03:06.520Z</time>
      </trkpt>
      <trkpt lat="44.54201" lon="6.78034">
        <ele>1723</ele>
        <time>2015-06-18T01:04:07.320Z</time>
      </trkpt>
      <trkpt lat="44.54206" lon="6.78025">
        <ele>1723</ele>
        <time>2015-06-18T01:05:04.420Z</time>
      </trkpt>
      <trkpt lat="44.54211" lon="6.78011">
        <ele>1736</ele>
        <time>2015-06-18T01:06:04.420Z</time>
      </trkpt>
      <trkpt lat="44.54214" lon="6.78007">
        <ele>1736</ele>
        <time>2015-06-18T01:07:06.600Z</time>
      </trkpt>
      <trkpt lat="44.54213" lon="6.78005">
        <ele>1736</ele>
        <time>2015-06-18T01:09:05.280Z</time>
      </trkpt>
      <trkpt lat="44.54213" lon="6.78005">
        <ele>1736</ele>
        <time>2015-06-18T01:10:07.420Z</time>
      </trkpt>
      <trkpt lat="44.54214" lon="6.78007">
        <ele>1736</ele>
        <time>2015-06-18T01:12:05.220Z</time>
      </trkpt>
      <trkpt lat="44.54218" lon="6.78001">
        <ele>1736</ele>
        <time>2015-06-18T01:13:04.420Z</time>
      </trkpt>
      <trkpt lat="44.54224" lon="6.77993">
        <ele>1736</ele>
        <time>2015-06-18T01:14:04.370Z</time>
      </trkpt>
      <trkpt lat="44.54231" lon="6.77981">
        <ele>1737</ele>
        <time>2015-06-18T01:15:05.220Z</time>
      </trkpt>
      <trkpt lat="44.54237" lon="6.77964">
        <ele>1760</ele>
        <time>2015-06-18T01:16:05.220Z</time>
      </trkpt>
      <trkpt lat="44.5424" lon="6.77954">
        <ele>1759</ele>
        <time>2015-06-18T01:17:04.420Z</time>
      </trkpt>
      <trkpt lat="44.54243" lon="6.77944">
        <ele>1759</ele>
        <time>2015-06-18T01:18:05.250Z</time>
      </trkpt>
      <trkpt lat="44.54247" lon="6.77941">
        <ele>1759</ele>
        <time>2015-06-18T01:19:04.420Z</time>
      </trkpt>
      <trkpt lat="44.54262" lon="6.77928">
        <ele>1758</ele>
        <time>2015-06-18T01:20:04.420Z</time>
      </trkpt>
      <trkpt lat="44.54276" lon="6.77918">
        <ele>1778</ele>
        <time>2015-06-18T01:21:04.420Z</time>
      </trkpt>
      <trkpt lat="44.54282" lon="6.77911">
        <ele>1778</ele>
        <time>2015-06-18T01:22:04.420Z</time>
      </trkpt>
      <trkpt lat="44.54283" lon="6.77909">
        <ele>1778</ele>
        <time>2015-06-18T01:23:04.520Z</time>
      </trkpt>
      <trkpt lat="44.54284" lon="6.7791">
        <ele>1778</ele>
        <time>2015-06-18T01:24:05.260Z</time>
      </trkpt>
      <trkpt lat="44.54284" lon="6.7791">
        <ele>1778</ele>
        <time>2015-06-18T01:25:07.220Z</time>
      </trkpt>
      <trkpt lat="44.54296" lon="6.77894">
        <ele>1794</ele>
        <time>2015-06-18T01:26:04.420Z</time>
      </trkpt>
      <trkpt lat="44.54306" lon="6.77881">
        <ele>1794</ele>
        <time>2015-06-18T01:27:07.420Z</time>
      </trkpt>
      <trkpt lat="44.54306" lon="6.77881">
        <ele>1794</ele>
        <time>2015-06-18T01:28:04.420Z</time>
      </trkpt>
      <trkpt lat="44.54305" lon="6.77879">
        <ele>1794</ele>
        <time>2015-06-18T01:29:04.420Z</time>
      </trkpt>
      <trkpt lat="44.54312" lon="6.7787">
        <ele>1788</ele>
        <time>2015-06-18T01:30:08.420Z</time>
      </trkpt>
      <trkpt lat="44.54318" lon="6.77859">
        <ele>1788</ele>
        <time>2015-06-18T01:31:04.420Z</time>
      </trkpt>
      <trkpt lat="44.54323" lon="6.77849">
        <ele>1829</ele>
        <time>2015-06-18T01:32:09.420Z</time>
      </trkpt>
      <trkpt lat="44.54343" lon="6.77804">
        <ele>1821</ele>
        <time>2015-06-18T01:33:04.420Z</time>
      </trkpt>
      <trkpt lat="44.54347" lon="6.77791">
        <ele>1839</ele>
        <time>2015-06-18T01:34:04.420Z</time>
      </trkpt>
      <trkpt lat="44.54352" lon="6.7778">
        <ele>1839</ele>
        <time>2015-06-18T01:35:09.520Z</time>
      </trkpt>
      <trkpt lat="44.54356" lon="6.77765">
        <ele>1839</ele>
        <time>2015-06-18T01:36:08.520Z</time>
      </trkpt>
      <trkpt lat="44.54356" lon="6.77765">
        <ele>1839</ele>
        <time>2015-06-18T01:37:04.520Z</time>
      </trkpt>
      <trkpt lat="44.54356" lon="6.77689">
        <ele>1846</ele>
        <time>2015-06-18T01:38:07.320Z</time>
      </trkpt>
      <trkpt lat="44.54366" lon="6.77671">
        <ele>1855</ele>
        <time>2015-06-18T01:39:04.420Z</time>
      </trkpt>
      <trkpt lat="44.54388" lon="6.77679">
        <ele>1863</ele>
        <time>2015-06-18T01:40:07.370Z</time>
      </trkpt>
      <trkpt lat="44.54387" lon="6.77665">
        <ele>1863</ele>
        <time>2015-06-18T01:41:04.400Z</time>
      </trkpt>
      <trkpt lat="44.54403" lon="6.7767">
        <ele>1882</ele>
        <time>2015-06-18T01:42:04.420Z</time>
      </trkpt>
      <trkpt lat="44.54409" lon="6.7767">
        <ele>1882</ele>
        <time>2015-06-18T01:43:07.420Z</time>
      </trkpt>
      <trkpt lat="44.54427" lon="6.77651">
        <ele>1883</ele>
        <time>2015-06-18T01:44:07.320Z</time>
      </trkpt>
      <trkpt lat="44.54446" lon="6.77629">
        <ele>1896</ele>
        <time>2015-06-18T01:45:04.420Z</time>
      </trkpt>
      <trkpt lat="44.54458" lon="6.77617">
        <ele>1898</ele>
        <time>2015-06-18T01:46:09.520Z</time>
      </trkpt>
      <trkpt lat="44.54477" lon="6.77617">
        <ele>1913</ele>
        <time>2015-06-18T01:47:07.420Z</time>
      </trkpt>
      <trkpt lat="44.5449" lon="6.77599">
        <ele>1927</ele>
        <time>2015-06-18T01:48:04.420Z</time>
      </trkpt>
      <trkpt lat="44.54484" lon="6.77568">
        <ele>1913</ele>
        <time>2015-06-18T01:49:04.370Z</time>
      </trkpt>
      <trkpt lat="44.5448" lon="6.77527">
        <ele>1918</ele>
        <time>2015-06-18T01:50:07.570Z</time>
      </trkpt>
      <trkpt lat="44.5449" lon="6.77514">
        <ele>1929</ele>
        <time>2015-06-18T01:51:04.420Z</time>
      </trkpt>
      <trkpt lat="44.54503" lon="6.77502">
        <ele>1934</ele>
        <time>2015-06-18T01:52:04.420Z</time>
      </trkpt>
      <trkpt lat="44.54519" lon="6.77484">
        <ele>1953</ele>
        <time>2015-06-18T01:53:04.520Z</time>
      </trkpt>
      <trkpt lat="44.54525" lon="6.7747">
        <ele>1953</ele>
        <time>2015-06-18T01:54:09.520Z</time>
      </trkpt>
      <trkpt lat="44.54534" lon="6.77458">
        <ele>1960</ele>
        <time>2015-06-18T01:55:04.420Z</time>
      </trkpt>
      <trkpt lat="44.54558" lon="6.77432">
        <ele>1968</ele>
        <time>2015-06-18T01:56:08.620Z</time>
      </trkpt>
      <trkpt lat="44.5457" lon="6.77423">
        <ele>1988</ele>
        <time>2015-06-18T01:57:16.520Z</time>
      </trkpt>
      <trkpt lat="44.54581" lon="6.77432">
        <ele>1983</ele>
        <time>2015-06-18T01:58:09.400Z</time>
      </trkpt>
      <trkpt lat="44.54594" lon="6.7743">
        <ele>1988</ele>
        <time>2015-06-18T01:59:23.420Z</time>
      </trkpt>
      <trkpt lat="44.54607" lon="6.77429">
        <ele>1996</ele>
        <time>2015-06-18T02:00:04.510Z</time>
      </trkpt>
      <trkpt lat="44.54623" lon="6.77424">
        <ele>1996</ele>
        <time>2015-06-18T02:01:04.480Z</time>
      </trkpt>
      <trkpt lat="44.54629" lon="6.77394">
        <ele>2015</ele>
        <time>2015-06-18T02:02:05.300Z</time>
      </trkpt>
      <trkpt lat="44.54632" lon="6.77367">
        <ele>2021</ele>
        <time>2015-06-18T02:03:05.420Z</time>
      </trkpt>
      <trkpt lat="44.54645" lon="6.77352">
        <ele>2021</ele>
        <time>2015-06-18T02:04:05.420Z</time>
      </trkpt>
      <trkpt lat="44.54648" lon="6.77356">
        <ele>2021</ele>
        <time>2015-06-18T02:05:05.420Z</time>
      </trkpt>
      <trkpt lat="44.54662" lon="6.77334">
        <ele>2039</ele>
        <time>2015-06-18T02:06:04.370Z</time>
      </trkpt>
      <trkpt lat="44.54672" lon="6.7732">
        <ele>2039</ele>
        <time>2015-06-18T02:07:04.520Z</time>
      </trkpt>
      <trkpt lat="44.54686" lon="6.77301">
        <ele>2054</ele>
        <time>2015-06-18T02:08:05.220Z</time>
      </trkpt>
      <trkpt lat="44.54708" lon="6.77293">
        <ele>2054</ele>
        <time>2015-06-18T02:09:05.340Z</time>
      </trkpt>
      <trkpt lat="44.54722" lon="6.77284">
        <ele>2074</ele>
        <time>2015-06-18T02:10:04.520Z</time>
      </trkpt>
      <trkpt lat="44.54733" lon="6.77266">
        <ele>2074</ele>
        <time>2015-06-18T02:11:04.520Z</time>
      </trkpt>
      <trkpt lat="44.54736" lon="6.77261">
        <ele>2081</ele>
        <time>2015-06-18T02:12:04.510Z</time>
      </trkpt>
      <trkpt lat="44.54736" lon="6.77255">
        <ele>2081</ele>
        <time>2015-06-18T02:13:05.170Z</time>
      </trkpt>
      <trkpt lat="44.54745" lon="6.77249">
        <ele>2093</ele>
        <time>2015-06-18T02:14:04.390Z</time>
      </trkpt>
      <trkpt lat="44.54751" lon="6.77251">
        <ele>2093</ele>
        <time>2015-06-18T02:15:04.400Z</time>
      </trkpt>
      <trkpt lat="44.54769" lon="6.77229">
        <ele>2108</ele>
        <time>2015-06-18T02:16:04.420Z</time>
      </trkpt>
      <trkpt lat="44.54778" lon="6.77215">
        <ele>2108</ele>
        <time>2015-06-18T02:17:07.410Z</time>
      </trkpt>
      <trkpt lat="44.54787" lon="6.772">
        <ele>2111</ele>
        <time>2015-06-18T02:18:04.420Z</time>
      </trkpt>
      <trkpt lat="44.54794" lon="6.77184">
        <ele>2119</ele>
        <time>2015-06-18T02:19:05.330Z</time>
      </trkpt>
      <trkpt lat="44.54806" lon="6.77172">
        <ele>2126</ele>
        <time>2015-06-18T02:20:04.420Z</time>
      </trkpt>
      <trkpt lat="44.54818" lon="6.77145">
        <ele>2129</ele>
        <time>2015-06-18T02:21:05.100Z</time>
      </trkpt>
      <trkpt lat="44.54841" lon="6.77128">
        <ele>2140</ele>
        <time>2015-06-18T02:22:04.420Z</time>
      </trkpt>
      <trkpt lat="44.54856" lon="6.77111">
        <ele>2141</ele>
        <time>2015-06-18T02:23:05.220Z</time>
      </trkpt>
      <trkpt lat="44.54885" lon="6.77078">
        <ele>2149</ele>
        <time>2015-06-18T02:24:05.320Z</time>
      </trkpt>
      <trkpt lat="44.5493" lon="6.77036">
        <ele>2153</ele>
        <time>2015-06-18T02:25:05.220Z</time>
      </trkpt>
      <trkpt lat="44.54952" lon="6.77006">
        <ele>2152</ele>
        <time>2015-06-18T02:26:04.420Z</time>
      </trkpt>
      <trkpt lat="44.54965" lon="6.77">
        <ele>2160</ele>
        <time>2015-06-18T02:27:04.420Z</time>
      </trkpt>
      <trkpt lat="44.54982" lon="6.76978">
        <ele>2154</ele>
        <time>2015-06-18T02:28:05.220Z</time>
      </trkpt>
      <trkpt lat="44.55022" lon="6.76963">
        <ele>2186</ele>
        <time>2015-06-18T02:29:05.220Z</time>
      </trkpt>
      <trkpt lat="44.55027" lon="6.76953">
        <ele>2175</ele>
        <time>2015-06-18T02:30:05.320Z</time>
      </trkpt>
      <trkpt lat="44.5503" lon="6.76932">
        <ele>2175</ele>
        <time>2015-06-18T02:33:04.420Z</time>
      </trkpt>
      <trkpt lat="44.55045" lon="6.76893">
        <ele>2180</ele>
        <time>2015-06-18T02:34:04.330Z</time>
      </trkpt>
      <trkpt lat="44.55073" lon="6.76813">
        <ele>2181</ele>
        <time>2015-06-18T02:35:04.420Z</time>
      </trkpt>
      <trkpt lat="44.55069" lon="6.76792">
        <ele>2181</ele>
        <time>2015-06-18T02:36:05.200Z</time>
      </trkpt>
      <trkpt lat="44.55061" lon="6.76771">
        <ele>2182</ele>
        <time>2015-06-18T02:37:05.320Z</time>
      </trkpt>
      <trkpt lat="44.55085" lon="6.76725">
        <ele>2189</ele>
        <time>2015-06-18T02:38:07.190Z</time>
      </trkpt>
      <trkpt lat="44.55121" lon="6.76723">
        <ele>2193</ele>
        <time>2015-06-18T02:39:05.220Z</time>
      </trkpt>
      <trkpt lat="44.55134" lon="6.76687">
        <ele>2201</ele>
        <time>2015-06-18T02:40:05.220Z</time>
      </trkpt>
      <trkpt lat="44.55147" lon="6.76653">
        <ele>2202</ele>
        <time>2015-06-18T02:41:11.420Z</time>
      </trkpt>
      <trkpt lat="44.55165" lon="6.76616">
        <ele>2208</ele>
        <time>2015-06-18T02:42:05.220Z</time>
      </trkpt>
      <trkpt lat="44.55181" lon="6.76594">
        <ele>2214</ele>
        <time>2015-06-18T02:43:05.170Z</time>
      </trkpt>
      <trkpt lat="44.55206" lon="6.76569">
        <ele>2216</ele>
        <time>2015-06-18T02:44:05.220Z</time>
      </trkpt>
      <trkpt lat="44.55218" lon="6.76551">
        <ele>2220</ele>
        <time>2015-06-18T02:45:05.320Z</time>
      </trkpt>
      <trkpt lat="44.55236" lon="6.7653">
        <ele>2219</ele>
        <time>2015-06-18T02:46:05.220Z</time>
      </trkpt>
      <trkpt lat="44.55267" lon="6.76504">
        <ele>2229</ele>
        <time>2015-06-18T02:47:05.320Z</time>
      </trkpt>
      <trkpt lat="44.55286" lon="6.76498">
        <ele>2229</ele>
        <time>2015-06-18T02:48:05.220Z</time>
      </trkpt>
      <trkpt lat="44.55311" lon="6.76488">
        <ele>2231</ele>
        <time>2015-06-18T02:49:13.420Z</time>
      </trkpt>
      <trkpt lat="44.5534" lon="6.76464">
        <ele>2231</ele>
        <time>2015-06-18T02:50:12.420Z</time>
      </trkpt>
      <trkpt lat="44.55363" lon="6.76445">
        <ele>2234</ele>
        <time>2015-06-18T02:51:04.420Z</time>
      </trkpt>
      <trkpt lat="44.55389" lon="6.76415">
        <ele>2243</ele>
        <time>2015-06-18T02:52:16.420Z</time>
      </trkpt>
      <trkpt lat="44.55411" lon="6.76396">
        <ele>2249</ele>
        <time>2015-06-18T02:53:05.200Z</time>
      </trkpt>
      <trkpt lat="44.55424" lon="6.76388">
        <ele>2249</ele>
        <time>2015-06-18T02:54:05.320Z</time>
      </trkpt>
      <trkpt lat="44.55438" lon="6.76363">
        <ele>2256</ele>
        <time>2015-06-18T02:55:05.220Z</time>
      </trkpt>
      <trkpt lat="44.55457" lon="6.76337">
        <ele>2256</ele>
        <time>2015-06-18T02:56:04.400Z</time>
      </trkpt>
      <trkpt lat="44.55497" lon="6.76293">
        <ele>2267</ele>
        <time>2015-06-18T02:57:05.220Z</time>
      </trkpt>
      <trkpt lat="44.55544" lon="6.76239">
        <ele>2276</ele>
        <time>2015-06-18T02:58:16.520Z</time>
      </trkpt>
      <trkpt lat="44.55566" lon="6.76227">
        <ele>2278</ele>
        <time>2015-06-18T02:59:04.390Z</time>
      </trkpt>
      <trkpt lat="44.556" lon="6.76214">
        <ele>2286</ele>
        <time>2015-06-18T03:00:09.620Z</time>
      </trkpt>
      <trkpt lat="44.55635" lon="6.76174">
        <ele>2290</ele>
        <time>2015-06-18T03:01:04.390Z</time>
      </trkpt>
      <trkpt lat="44.55671" lon="6.76152">
        <ele>2292</ele>
        <time>2015-06-18T03:02:11.420Z</time>
      </trkpt>
      <trkpt lat="44.55738" lon="6.76107">
        <ele>2309</ele>
        <time>2015-06-18T03:03:05.220Z</time>
      </trkpt>
      <trkpt lat="44.55769" lon="6.76073">
        <ele>2313</ele>
        <time>2015-06-18T03:05:05.320Z</time>
      </trkpt>
      <trkpt lat="44.55793" lon="6.76071">
        <ele>2319</ele>
        <time>2015-06-18T03:06:05.200Z</time>
      </trkpt>
      <trkpt lat="44.55812" lon="6.76054">
        <ele>2320</ele>
        <time>2015-06-18T03:07:05.220Z</time>
      </trkpt>
      <trkpt lat="44.55831" lon="6.76035">
        <ele>2329</ele>
        <time>2015-06-18T03:08:05.170Z</time>
      </trkpt>
      <trkpt lat="44.55841" lon="6.76029">
        <ele>2329</ele>
        <time>2015-06-18T03:09:04.420Z</time>
      </trkpt>
      <trkpt lat="44.55852" lon="6.76027">
        <ele>2341</ele>
        <time>2015-06-18T03:10:05.320Z</time>
      </trkpt>
      <trkpt lat="44.55873" lon="6.76012">
        <ele>2343</ele>
        <time>2015-06-18T03:11:04.420Z</time>
      </trkpt>
      <trkpt lat="44.55904" lon="6.75997">
        <ele>2351</ele>
        <time>2015-06-18T03:12:04.420Z</time>
      </trkpt>
      <trkpt lat="44.55939" lon="6.75991">
        <ele>2356</ele>
        <time>2015-06-18T03:13:04.420Z</time>
      </trkpt>
      <trkpt lat="44.55985" lon="6.75969">
        <ele>2363</ele>
        <time>2015-06-18T03:14:07.190Z</time>
      </trkpt>
      <trkpt lat="44.56013" lon="6.75965">
        <ele>2369</ele>
        <time>2015-06-18T03:15:18.420Z</time>
      </trkpt>
      <trkpt lat="44.5605" lon="6.75958">
        <ele>2381</ele>
        <time>2015-06-18T03:16:04.520Z</time>
      </trkpt>
      <trkpt lat="44.56072" lon="6.75959">
        <ele>2390</ele>
        <time>2015-06-18T03:17:16.620Z</time>
      </trkpt>
      <trkpt lat="44.56097" lon="6.75954">
        <ele>2396</ele>
        <time>2015-06-18T03:18:04.420Z</time>
      </trkpt>
      <trkpt lat="44.56111" lon="6.75946">
        <ele>2396</ele>
        <time>2015-06-18T03:19:16.520Z</time>
      </trkpt>
      <trkpt lat="44.56144" lon="6.75954">
        <ele>2410</ele>
        <time>2015-06-18T03:20:04.420Z</time>
      </trkpt>
      <trkpt lat="44.56166" lon="6.75954">
        <ele>2417</ele>
        <time>2015-06-18T03:21:05.220Z</time>
      </trkpt>
      <trkpt lat="44.56178" lon="6.75948">
        <ele>2417</ele>
        <time>2015-06-18T03:22:04.520Z</time>
      </trkpt>
      <trkpt lat="44.5619" lon="6.75945">
        <ele>2424</ele>
        <time>2015-06-18T03:23:04.280Z</time>
      </trkpt>
      <trkpt lat="44.56202" lon="6.7594">
        <ele>2424</ele>
        <time>2015-06-18T03:24:04.410Z</time>
      </trkpt>
      <trkpt lat="44.56248" lon="6.75907">
        <ele>2439</ele>
        <time>2015-06-18T03:26:16.610Z</time>
      </trkpt>
      <trkpt lat="44.56312" lon="6.75879">
        <ele>2451</ele>
        <time>2015-06-18T03:31:17.420Z</time>
      </trkpt>
      <trkpt lat="44.56339" lon="6.75868">
        <ele>2451</ele>
        <time>2015-06-18T03:32:17.420Z</time>
      </trkpt>
      <trkpt lat="44.56386" lon="6.75843">
        <ele>2462</ele>
        <time>2015-06-18T03:33:07.210Z</time>
      </trkpt>
      <trkpt lat="44.56413" lon="6.75823">
        <ele>2468</ele>
        <time>2015-06-18T03:34:04.410Z</time>
      </trkpt>
      <trkpt lat="44.56447" lon="6.75804">
        <ele>2476</ele>
        <time>2015-06-18T03:35:16.420Z</time>
      </trkpt>
      <trkpt lat="44.56483" lon="6.75805">
        <ele>2486</ele>
        <time>2015-06-18T03:36:04.510Z</time>
      </trkpt>
      <trkpt lat="44.56506" lon="6.75792">
        <ele>2490</ele>
        <time>2015-06-18T03:38:18.620Z</time>
      </trkpt>
      <trkpt lat="44.56522" lon="6.7578">
        <ele>2497</ele>
        <time>2015-06-18T03:39:05.210Z</time>
      </trkpt>
      <trkpt lat="44.56541" lon="6.75783">
        <ele>2497</ele>
        <time>2015-06-18T03:40:15.520Z</time>
      </trkpt>
      <trkpt lat="44.56554" lon="6.75787">
        <ele>2507</ele>
        <time>2015-06-18T03:42:05.210Z</time>
      </trkpt>
      <trkpt lat="44.56564" lon="6.75773">
        <ele>2507</ele>
        <time>2015-06-18T03:43:04.520Z</time>
      </trkpt>
      <trkpt lat="44.56582" lon="6.75762">
        <ele>2516</ele>
        <time>2015-06-18T03:44:05.200Z</time>
      </trkpt>
      <trkpt lat="44.56609" lon="6.75744">
        <ele>2523</ele>
        <time>2015-06-18T03:45:05.320Z</time>
      </trkpt>
      <trkpt lat="44.56627" lon="6.75716">
        <ele>2537</ele>
        <time>2015-06-18T03:46:12.520Z</time>
      </trkpt>
      <trkpt lat="44.56639" lon="6.75712">
        <ele>2537</ele>
        <time>2015-06-18T03:47:04.410Z</time>
      </trkpt>
      <trkpt lat="44.5665" lon="6.757">
        <ele>2543</ele>
        <time>2015-06-18T03:48:17.420Z</time>
      </trkpt>
      <trkpt lat="44.56658" lon="6.7569">
        <ele>2546</ele>
        <time>2015-06-18T03:49:04.370Z</time>
      </trkpt>
      <trkpt lat="44.56666" lon="6.75701">
        <ele>2546</ele>
        <time>2015-06-18T03:51:07.220Z</time>
      </trkpt>
      <trkpt lat="44.56681" lon="6.75707">
        <ele>2556</ele>
        <time>2015-06-18T03:52:15.420Z</time>
      </trkpt>
      <trkpt lat="44.5668" lon="6.75692">
        <ele>2546</ele>
        <time>2015-06-18T03:53:05.110Z</time>
      </trkpt>
      <trkpt lat="44.56705" lon="6.75697">
        <ele>2556</ele>
        <time>2015-06-18T03:54:04.390Z</time>
      </trkpt>
      <trkpt lat="44.56719" lon="6.75678">
        <ele>2568</ele>
        <time>2015-06-18T03:55:04.410Z</time>
      </trkpt>
      <trkpt lat="44.56728" lon="6.75676">
        <ele>2568</ele>
        <time>2015-06-18T03:56:05.320Z</time>
      </trkpt>
      <trkpt lat="44.56738" lon="6.75669">
        <ele>2574</ele>
        <time>2015-06-18T03:57:08.400Z</time>
      </trkpt>
      <trkpt lat="44.56742" lon="6.75658">
        <ele>2574</ele>
        <time>2015-06-18T03:59:05.210Z</time>
      </trkpt>
      <trkpt lat="44.56751" lon="6.7566">
        <ele>2574</ele>
        <time>2015-06-18T04:00:15.610Z</time>
      </trkpt>
      <trkpt lat="44.56757" lon="6.75654">
        <ele>2574</ele>
        <time>2015-06-18T04:01:15.610Z</time>
      </trkpt>
      <trkpt lat="44.56762" lon="6.75655">
        <ele>2574</ele>
        <time>2015-06-18T04:02:05.110Z</time>
      </trkpt>
      <trkpt lat="44.56768" lon="6.7565">
        <ele>2580</ele>
        <time>2015-06-18T04:03:05.190Z</time>
      </trkpt>
      <trkpt lat="44.56778" lon="6.75647">
        <ele>2580</ele>
        <time>2015-06-18T04:04:15.610Z</time>
      </trkpt>
      <trkpt lat="44.56787" lon="6.75639">
        <ele>2580</ele>
        <time>2015-06-18T04:05:15.420Z</time>
      </trkpt>
      <trkpt lat="44.56802" lon="6.75641">
        <ele>2586</ele>
        <time>2015-06-18T04:06:15.610Z</time>
      </trkpt>
      <trkpt lat="44.56825" lon="6.75632">
        <ele>2596</ele>
        <time>2015-06-18T04:07:05.170Z</time>
      </trkpt>
      <trkpt lat="44.56843" lon="6.75614">
        <ele>2602</ele>
        <time>2015-06-18T04:08:04.410Z</time>
      </trkpt>
      <trkpt lat="44.56865" lon="6.75601">
        <ele>2603</ele>
        <time>2015-06-18T04:09:04.410Z</time>
      </trkpt>
      <trkpt lat="44.5688" lon="6.75595">
        <ele>2612</ele>
        <time>2015-06-18T04:10:05.110Z</time>
      </trkpt>
      <trkpt lat="44.56897" lon="6.75596">
        <ele>2612</ele>
        <time>2015-06-18T04:11:04.410Z</time>
      </trkpt>
      <trkpt lat="44.56924" lon="6.75593">
        <ele>2612</ele>
        <time>2015-06-18T04:13:15.510Z</time>
      </trkpt>
      <trkpt lat="44.56948" lon="6.75598">
        <ele>2621</ele>
        <time>2015-06-18T04:14:15.510Z</time>
      </trkpt>
      <trkpt lat="44.56958" lon="6.75594">
        <ele>2616</ele>
        <time>2015-06-18T04:15:04.520Z</time>
      </trkpt>
      <trkpt lat="44.56995" lon="6.7557">
        <ele>2637</ele>
        <time>2015-06-18T04:16:04.320Z</time>
      </trkpt>
      <trkpt lat="44.57017" lon="6.75543">
        <ele>2647</ele>
        <time>2015-06-18T04:17:04.410Z</time>
      </trkpt>
      <trkpt lat="44.57051" lon="6.75527">
        <ele>2655</ele>
        <time>2015-06-18T04:18:04.410Z</time>
      </trkpt>
      <trkpt lat="44.57067" lon="6.75521">
        <ele>2655</ele>
        <time>2015-06-18T04:19:15.610Z</time>
      </trkpt>
      <trkpt lat="44.57094" lon="6.75503">
        <ele>2662</ele>
        <time>2015-06-18T04:20:04.410Z</time>
      </trkpt>
      <trkpt lat="44.5713" lon="6.75481">
        <ele>2671</ele>
        <time>2015-06-18T04:21:15.510Z</time>
      </trkpt>
      <trkpt lat="44.5714" lon="6.75471">
        <ele>2671</ele>
        <time>2015-06-18T04:22:04.410Z</time>
      </trkpt>
      <trkpt lat="44.57143" lon="6.75507">
        <ele>2674</ele>
        <time>2015-06-18T04:23:05.210Z</time>
      </trkpt>
      <trkpt lat="44.57142" lon="6.75542">
        <ele>2687</ele>
        <time>2015-06-18T04:24:04.390Z</time>
      </trkpt>
      <trkpt lat="44.57166" lon="6.75521">
        <ele>2691</ele>
        <time>2015-06-18T04:25:04.410Z</time>
      </trkpt>
      <trkpt lat="44.57155" lon="6.75571">
        <ele>2706</ele>
        <time>2015-06-18T04:26:04.370Z</time>
      </trkpt>
      <trkpt lat="44.57156" lon="6.7562">
        <ele>2712</ele>
        <time>2015-06-18T04:27:04.410Z</time>
      </trkpt>
      <trkpt lat="44.57162" lon="6.75639">
        <ele>2716</ele>
        <time>2015-06-18T04:28:04.410Z</time>
      </trkpt>
      <trkpt lat="44.57171" lon="6.75658">
        <ele>2717</ele>
        <time>2015-06-18T04:30:04.440Z</time>
      </trkpt>
      <trkpt lat="44.57192" lon="6.75682">
        <ele>2722</ele>
        <time>2015-06-18T04:31:05.170Z</time>
      </trkpt>
      <trkpt lat="44.57206" lon="6.75708">
        <ele>2722</ele>
        <time>2015-06-18T04:34:05.110Z</time>
      </trkpt>
      <trkpt lat="44.57211" lon="6.75712">
        <ele>2730</ele>
        <time>2015-06-18T04:35:04.410Z</time>
      </trkpt>
      <trkpt lat="44.57213" lon="6.7573">
        <ele>2730</ele>
        <time>2015-06-18T04:36:04.410Z</time>
      </trkpt>
      <trkpt lat="44.57221" lon="6.75736">
        <ele>2730</ele>
        <time>2015-06-18T04:37:16.510Z</time>
      </trkpt>
      <trkpt lat="44.57233" lon="6.75761">
        <ele>2735</ele>
        <time>2015-06-18T04:38:05.310Z</time>
      </trkpt>
      <trkpt lat="44.57237" lon="6.75778">
        <ele>2752</ele>
        <time>2015-06-18T04:39:04.520Z</time>
      </trkpt>
      <trkpt lat="44.57243" lon="6.75799">
        <ele>2761</ele>
        <time>2015-06-18T04:40:05.210Z</time>
      </trkpt>
      <trkpt lat="44.57253" lon="6.75802">
        <ele>2761</ele>
        <time>2015-06-18T04:41:04.410Z</time>
      </trkpt>
      <trkpt lat="44.57262" lon="6.75822">
        <ele>2772</ele>
        <time>2015-06-18T04:44:05.210Z</time>
      </trkpt>
      <trkpt lat="44.57273" lon="6.75826">
        <ele>2783</ele>
        <time>2015-06-18T04:45:35.410Z</time>
      </trkpt>
      <trkpt lat="44.57276" lon="6.75847">
        <ele>2783</ele>
        <time>2015-06-18T04:48:37.330Z</time>
      </trkpt>
      <trkpt lat="44.5729" lon="6.7588">
        <ele>2800</ele>
        <time>2015-06-18T04:54:05.210Z</time>
      </trkpt>
      <trkpt lat="44.57293" lon="6.75898">
        <ele>2812</ele>
        <time>2015-06-18T04:57:06.410Z</time>
      </trkpt>
      <trkpt lat="44.57299" lon="6.75924">
        <ele>2819</ele>
        <time>2015-06-18T04:58:04.410Z</time>
      </trkpt>
      <trkpt lat="44.57302" lon="6.7593">
        <ele>2819</ele>
        <time>2015-06-18T04:59:04.410Z</time>
      </trkpt>
      <trkpt lat="44.57322" lon="6.7594">
        <ele>2835</ele>
        <time>2015-06-18T05:00:05.210Z</time>
      </trkpt>
      <trkpt lat="44.57336" lon="6.75952">
        <ele>2835</ele>
        <time>2015-06-18T05:01:05.110Z</time>
      </trkpt>
      <trkpt lat="44.57374" lon="6.75982">
        <ele>2838</ele>
        <time>2015-06-18T05:02:04.410Z</time>
      </trkpt>
      <trkpt lat="44.57396" lon="6.76008">
        <ele>2840</ele>
        <time>2015-06-18T05:03:05.110Z</time>
      </trkpt>
      <trkpt lat="44.5743" lon="6.76036">
        <ele>2839</ele>
        <time>2015-06-18T05:04:05.210Z</time>
      </trkpt>
      <trkpt lat="44.57461" lon="6.76048">
        <ele>2825</ele>
        <time>2015-06-18T05:05:05.570Z</time>
      </trkpt>
      <trkpt lat="44.57511" lon="6.76075">
        <ele>2818</ele>
        <time>2015-06-18T05:06:04.410Z</time>
      </trkpt>
      <trkpt lat="44.57523" lon="6.76085">
        <ele>2824</ele>
        <time>2015-06-18T05:07:05.210Z</time>
      </trkpt>
      <trkpt lat="44.57534" lon="6.76127">
        <ele>2825</ele>
        <time>2015-06-18T05:08:07.410Z</time>
      </trkpt>
      <trkpt lat="44.57536" lon="6.76152">
        <ele>2825</ele>
        <time>2015-06-18T05:09:11.410Z</time>
      </trkpt>
      <trkpt lat="44.57542" lon="6.76166">
        <ele>2834</ele>
        <time>2015-06-18T05:10:05.210Z</time>
      </trkpt>
      <trkpt lat="44.57548" lon="6.76178">
        <ele>2834</ele>
        <time>2015-06-18T05:11:05.280Z</time>
      </trkpt>
      <trkpt lat="44.57564" lon="6.76195">
        <ele>2839</ele>
        <time>2015-06-18T05:12:07.410Z</time>
      </trkpt>
      <trkpt lat="44.57595" lon="6.76236">
        <ele>2852</ele>
        <time>2015-06-18T05:14:06.410Z</time>
      </trkpt>
      <trkpt lat="44.57601" lon="6.76255">
        <ele>2869</ele>
        <time>2015-06-18T05:15:05.170Z</time>
      </trkpt>
      <trkpt lat="44.57624" lon="6.76283">
        <ele>2872</ele>
        <time>2015-06-18T05:16:05.110Z</time>
      </trkpt>
      <trkpt lat="44.57633" lon="6.76321">
        <ele>2892</ele>
        <time>2015-06-18T05:17:05.220Z</time>
      </trkpt>
      <trkpt lat="44.57651" lon="6.76326">
        <ele>2892</ele>
        <time>2015-06-18T05:18:05.110Z</time>
      </trkpt>
      <trkpt lat="44.57659" lon="6.76345">
        <ele>2917</ele>
        <time>2015-06-18T05:19:05.210Z</time>
      </trkpt>
      <trkpt lat="44.57689" lon="6.76371">
        <ele>2938</ele>
        <time>2015-06-18T05:20:05.110Z</time>
      </trkpt>
      <trkpt lat="44.57688" lon="6.76389">
        <ele>2937</ele>
        <time>2015-06-18T05:21:05.220Z</time>
      </trkpt>
      <trkpt lat="44.57689" lon="6.76409">
        <ele>2935</ele>
        <time>2015-06-18T05:22:08.320Z</time>
      </trkpt>
      <trkpt lat="44.57686" lon="6.76444">
        <ele>2938</ele>
        <time>2015-06-18T05:23:05.210Z</time>
      </trkpt>
      <trkpt lat="44.57687" lon="6.76451">
        <ele>2938</ele>
        <time>2015-06-18T05:24:05.220Z</time>
      </trkpt>
      <trkpt lat="44.57697" lon="6.76443">
        <ele>2938</ele>
        <time>2015-06-18T05:25:05.210Z</time>
      </trkpt>
      <trkpt lat="44.57709" lon="6.76463">
        <ele>2962</ele>
        <time>2015-06-18T05:26:05.210Z</time>
      </trkpt>
      <trkpt lat="44.57707" lon="6.76485">
        <ele>2944</ele>
        <time>2015-06-18T05:27:05.210Z</time>
      </trkpt>
      <trkpt lat="44.57718" lon="6.76515">
        <ele>2968</ele>
        <time>2015-06-18T05:28:05.210Z</time>
      </trkpt>
      <trkpt lat="44.5773" lon="6.7653">
        <ele>2968</ele>
        <time>2015-06-18T05:30:07.410Z</time>
      </trkpt>
      <trkpt lat="44.57736" lon="6.76546">
        <ele>2972</ele>
        <time>2015-06-18T05:31:05.170Z</time>
      </trkpt>
      <trkpt lat="44.57734" lon="6.76565">
        <ele>2972</ele>
        <time>2015-06-18T05:32:05.220Z</time>
      </trkpt>
      <trkpt lat="44.57764" lon="6.76594">
        <ele>3001</ele>
        <time>2015-06-18T05:33:05.350Z</time>
      </trkpt>
      <trkpt lat="44.57772" lon="6.76608">
        <ele>3001</ele>
        <time>2015-06-18T05:34:05.320Z</time>
      </trkpt>
      <trkpt lat="44.578" lon="6.76614">
        <ele>3017</ele>
        <time>2015-06-18T05:35:05.210Z</time>
      </trkpt>
      <trkpt lat="44.57811" lon="6.76609">
        <ele>3017</ele>
        <time>2015-06-18T05:36:05.210Z</time>
      </trkpt>
      <trkpt lat="44.57816" lon="6.76612">
        <ele>3017</ele>
        <time>2015-06-18T05:37:05.710Z</time>
      </trkpt>
      <trkpt lat="44.57828" lon="6.76621">
        <ele>3031</ele>
        <time>2015-06-18T05:38:05.220Z</time>
      </trkpt>
      <trkpt lat="44.57837" lon="6.76638">
        <ele>3029</ele>
        <time>2015-06-18T05:39:05.170Z</time>
      </trkpt>
      <trkpt lat="44.57851" lon="6.76677">
        <ele>3033</ele>
        <time>2015-06-18T05:40:05.320Z</time>
      </trkpt>
      <trkpt lat="44.57853" lon="6.76697">
        <ele>3032</ele>
        <time>2015-06-18T05:41:05.220Z</time>
      </trkpt>
      <trkpt lat="44.57855" lon="6.76712">
        <ele>3035</ele>
        <time>2015-06-18T05:42:07.510Z</time>
      </trkpt>
      <trkpt lat="44.57858" lon="6.76731">
        <ele>3035</ele>
        <time>2015-06-18T05:43:05.720Z</time>
      </trkpt>
      <trkpt lat="44.57859" lon="6.76752">
        <ele>3038</ele>
        <time>2015-06-18T05:44:05.170Z</time>
      </trkpt>
      <trkpt lat="44.57862" lon="6.76794">
        <ele>3044</ele>
        <time>2015-06-18T05:45:05.220Z</time>
      </trkpt>
      <trkpt lat="44.57853" lon="6.76819">
        <ele>3044</ele>
        <time>2015-06-18T05:46:05.210Z</time>
      </trkpt>
      <trkpt lat="44.57841" lon="6.76826">
        <ele>3051</ele>
        <time>2015-06-18T05:48:05.210Z</time>
      </trkpt>
      <trkpt lat="44.57839" lon="6.76834">
        <ele>3051</ele>
        <time>2015-06-18T05:49:05.220Z</time>
      </trkpt>
      <trkpt lat="44.57813" lon="6.7687">
        <ele>3063</ele>
        <time>2015-06-18T05:50:08.510Z</time>
      </trkpt>
      <trkpt lat="44.578" lon="6.76908">
        <ele>3075</ele>
        <time>2015-06-18T05:51:05.210Z</time>
      </trkpt>
      <trkpt lat="44.57784" lon="6.76948">
        <ele>3083</ele>
        <time>2015-06-18T05:52:05.110Z</time>
      </trkpt>
      <trkpt lat="44.57739" lon="6.76986">
        <ele>3087</ele>
        <time>2015-06-18T05:53:05.220Z</time>
      </trkpt>
      <trkpt lat="44.57719" lon="6.76995">
        <ele>3095</ele>
        <time>2015-06-18T05:54:07.610Z</time>
      </trkpt>
      <trkpt lat="44.57675" lon="6.77026">
        <ele>3100</ele>
        <time>2015-06-18T05:55:07.410Z</time>
      </trkpt>
      <trkpt lat="44.57645" lon="6.7706">
        <ele>3106</ele>
        <time>2015-06-18T05:56:06.390Z</time>
      </trkpt>
      <trkpt lat="44.57628" lon="6.77064">
        <ele>3106</ele>
        <time>2015-06-18T05:57:05.210Z</time>
      </trkpt>
      <trkpt lat="44.57611" lon="6.77072">
        <ele>3117</ele>
        <time>2015-06-18T05:58:05.210Z</time>
      </trkpt>
      <trkpt lat="44.57582" lon="6.77078">
        <ele>3122</ele>
        <time>2015-06-18T05:59:05.210Z</time>
      </trkpt>
      <trkpt lat="44.57557" lon="6.77073">
        <ele>3128</ele>
        <time>2015-06-18T06:00:05.220Z</time>
      </trkpt>
      <trkpt lat="44.57534" lon="6.77064">
        <ele>3129</ele>
        <time>2015-06-18T06:00:05.220Z</time>
      </trkpt>
      <trkpt lat="44.57526" lon="6.77063">
        <ele>3129</ele>
        <time>2015-06-18T06:01:05.220Z</time>
      </trkpt>
      <trkpt lat="44.57502" lon="6.77049">
        <ele>3140</ele>
        <time>2015-06-18T06:02:05.210Z</time>
      </trkpt>
      <trkpt lat="44.5749" lon="6.77037">
        <ele>3134</ele>
        <time>2015-06-18T06:02:05.210Z</time>
      </trkpt>
      <trkpt lat="44.57474" lon="6.77029">
        <ele>3144</ele>
        <time>2015-06-18T06:02:05.210Z</time>
      </trkpt>
      <trkpt lat="44.57449" lon="6.77003">
        <ele>3144</ele>
        <time>2015-06-18T06:03:05.110Z</time>
      </trkpt>
      <trkpt lat="44.57443" lon="6.76984">
        <ele>3140</ele>
        <time>2015-06-18T06:04:05.220Z</time>
      </trkpt>
      <trkpt lat="44.57411" lon="6.76954">
        <ele>3144</ele>
        <time>2015-06-18T06:05:08.610Z</time>
      </trkpt>
      <trkpt lat="44.57394" lon="6.7695">
        <ele>3153</ele>
        <time>2015-06-18T06:06:07.390Z</time>
      </trkpt>
      <trkpt lat="44.57381" lon="6.76952">
        <ele>3153</ele>
        <time>2015-06-18T06:07:05.270Z</time>
      </trkpt>
      <trkpt lat="44.57308" lon="6.76913">
        <ele>3140</ele>
        <time>2015-06-18T06:08:08.410Z</time>
      </trkpt>
      <trkpt lat="44.57304" lon="6.76915">
        <ele>3140</ele>
        <time>2015-06-18T06:09:05.110Z</time>
      </trkpt>
      <trkpt lat="44.57378" lon="6.76951">
        <ele>3153</ele>
        <time>2015-06-18T06:10:07.330Z</time>
      </trkpt>
      <trkpt lat="44.57395" lon="6.76957">
        <ele>3153</ele>
        <time>2015-06-18T06:11:05.220Z</time>
      </trkpt>
      <trkpt lat="44.57425" lon="6.76989">
        <ele>3148</ele>
        <time>2015-06-18T06:12:08.410Z</time>
      </trkpt>
      <trkpt lat="44.5745" lon="6.77026">
        <ele>3146</ele>
        <time>2015-06-18T06:13:10.400Z</time>
      </trkpt>
      <trkpt lat="44.57477" lon="6.77065">
        <ele>3145</ele>
        <time>2015-06-18T06:14:05.210Z</time>
      </trkpt>
      <trkpt lat="44.57513" lon="6.77124">
        <ele>3150</ele>
        <time>2015-06-18T06:15:07.210Z</time>
      </trkpt>
      <trkpt lat="44.57548" lon="6.77176">
        <ele>3141</ele>
        <time>2015-06-18T06:16:05.210Z</time>
      </trkpt>
      <trkpt lat="44.576" lon="6.77215">
        <ele>3133</ele>
        <time>2015-06-18T06:17:09.520Z</time>
      </trkpt>
      <trkpt lat="44.57626" lon="6.77234">
        <ele>3135</ele>
        <time>2015-06-18T06:18:08.560Z</time>
      </trkpt>
      <trkpt lat="44.57661" lon="6.77244">
        <ele>3141</ele>
        <time>2015-06-18T06:19:08.520Z</time>
      </trkpt>
      <trkpt lat="44.57682" lon="6.77232">
        <ele>3149</ele>
        <time>2015-06-18T06:20:05.210Z</time>
      </trkpt>
      <trkpt lat="44.57704" lon="6.77236">
        <ele>3149</ele>
        <time>2015-06-18T06:21:06.410Z</time>
      </trkpt>
      <trkpt lat="44.57727" lon="6.77245">
        <ele>3145</ele>
        <time>2015-06-18T06:22:05.110Z</time>
      </trkpt>
      <trkpt lat="44.57745" lon="6.77256">
        <ele>3140</ele>
        <time>2015-06-18T06:23:08.410Z</time>
      </trkpt>
      <trkpt lat="44.57783" lon="6.77257">
        <ele>3138</ele>
        <time>2015-06-18T06:24:10.410Z</time>
      </trkpt>
      <trkpt lat="44.57818" lon="6.77243">
        <ele>3140</ele>
        <time>2015-06-18T06:26:05.210Z</time>
      </trkpt>
      <trkpt lat="44.57844" lon="6.77226">
        <ele>3138</ele>
        <time>2015-06-18T06:28:11.610Z</time>
      </trkpt>
      <trkpt lat="44.57854" lon="6.77214">
        <ele>3145</ele>
        <time>2015-06-18T06:30:09.490Z</time>
      </trkpt>
      <trkpt lat="44.57873" lon="6.77221">
        <ele>3145</ele>
        <time>2015-06-18T06:31:07.410Z</time>
      </trkpt>
      <trkpt lat="44.57891" lon="6.77223">
        <ele>3151</ele>
        <time>2015-06-18T06:32:06.600Z</time>
      </trkpt>
      <trkpt lat="44.57937" lon="6.77239">
        <ele>3160</ele>
        <time>2015-06-18T06:33:05.210Z</time>
      </trkpt>
      <trkpt lat="44.57962" lon="6.77236">
        <ele>3163</ele>
        <time>2015-06-18T06:34:05.200Z</time>
      </trkpt>
      <trkpt lat="44.57991" lon="6.77246">
        <ele>3162</ele>
        <time>2015-06-18T06:35:05.210Z</time>
      </trkpt>
      <trkpt lat="44.58009" lon="6.77247">
        <ele>3162</ele>
        <time>2015-06-18T06:36:05.210Z</time>
      </trkpt>
      <trkpt lat="44.58028" lon="6.77241">
        <ele>3160</ele>
        <time>2015-06-18T06:37:08.520Z</time>
      </trkpt>
      <trkpt lat="44.58051" lon="6.77223">
        <ele>3146</ele>
        <time>2015-06-18T06:38:05.210Z</time>
      </trkpt>
      <trkpt lat="44.58067" lon="6.77201">
        <ele>3151</ele>
        <time>2015-06-18T06:39:05.110Z</time>
      </trkpt>
      <trkpt lat="44.58083" lon="6.77179">
        <ele>3156</ele>
        <time>2015-06-18T06:40:08.520Z</time>
      </trkpt>
      <trkpt lat="44.58096" lon="6.77152">
        <ele>3156</ele>
        <time>2015-06-18T06:41:08.410Z</time>
      </trkpt>
      <trkpt lat="44.58113" lon="6.77134">
        <ele>3153</ele>
        <time>2015-06-18T06:42:07.210Z</time>
      </trkpt>
      <trkpt lat="44.58122" lon="6.77109">
        <ele>3156</ele>
        <time>2015-06-18T06:46:15.610Z</time>
      </trkpt>
      <trkpt lat="44.58125" lon="6.77072">
        <ele>3151</ele>
        <time>2015-06-18T06:47:09.390Z</time>
      </trkpt>
      <trkpt lat="44.58129" lon="6.77039">
        <ele>3129</ele>
        <time>2015-06-18T06:48:08.410Z</time>
      </trkpt>
      <trkpt lat="44.58138" lon="6.77011">
        <ele>3121</ele>
        <time>2015-06-18T06:49:08.390Z</time>
      </trkpt>
      <trkpt lat="44.58151" lon="6.76986">
        <ele>3117</ele>
        <time>2015-06-18T06:50:07.410Z</time>
      </trkpt>
      <trkpt lat="44.58162" lon="6.76954">
        <ele>3118</ele>
        <time>2015-06-18T06:51:08.400Z</time>
      </trkpt>
      <trkpt lat="44.58182" lon="6.76904">
        <ele>3133</ele>
        <time>2015-06-18T06:52:07.410Z</time>
      </trkpt>
      <trkpt lat="44.58183" lon="6.7687">
        <ele>3152</ele>
        <time>2015-06-18T06:53:05.210Z</time>
      </trkpt>
      <trkpt lat="44.5819" lon="6.76861">
        <ele>3152</ele>
        <time>2015-06-18T06:54:08.510Z</time>
      </trkpt>
      <trkpt lat="44.58214" lon="6.76846">
        <ele>3165</ele>
        <time>2015-06-18T06:55:08.510Z</time>
      </trkpt>
      <trkpt lat="44.58222" lon="6.76832">
        <ele>3165</ele>
        <time>2015-06-18T06:56:08.610Z</time>
      </trkpt>
      <trkpt lat="44.58248" lon="6.76824">
        <ele>3166</ele>
        <time>2015-06-18T06:57:07.210Z</time>
      </trkpt>
      <trkpt lat="44.58251" lon="6.76808">
        <ele>3162</ele>
        <time>2015-06-18T06:58:08.360Z</time>
      </trkpt>
      <trkpt lat="44.58264" lon="6.76819">
        <ele>3162</ele>
        <time>2015-06-18T06:59:08.620Z</time>
      </trkpt>
      <trkpt lat="44.583" lon="6.76854">
        <ele>3166</ele>
        <time>2015-06-18T07:00:08.410Z</time>
      </trkpt>
      <trkpt lat="44.58333" lon="6.76894">
        <ele>3153</ele>
        <time>2015-06-18T07:01:23.510Z</time>
      </trkpt>
      <trkpt lat="44.58322" lon="6.76882">
        <ele>3153</ele>
        <time>2015-06-18T07:02:28.390Z</time>
      </trkpt>
      <trkpt lat="44.58301" lon="6.76857">
        <ele>3166</ele>
        <time>2015-06-18T07:05:20.310Z</time>
      </trkpt>
      <trkpt lat="44.58276" lon="6.76835">
        <ele>3166</ele>
        <time>2015-06-18T07:06:21.010Z</time>
      </trkpt>
      <trkpt lat="44.58257" lon="6.76811">
        <ele>3162</ele>
        <time>2015-06-18T07:07:21.110Z</time>
      </trkpt>
      <trkpt lat="44.58234" lon="6.76798">
        <ele>3168</ele>
        <time>2015-06-18T07:08:22.110Z</time>
      </trkpt>
      <trkpt lat="44.582" lon="6.76774">
        <ele>3167</ele>
        <time>2015-06-18T07:09:23.110Z</time>
      </trkpt>
      <trkpt lat="44.58245" lon="6.76802">
        <ele>3162</ele>
        <time>2015-06-18T07:10:08.410Z</time>
      </trkpt>
      <trkpt lat="44.58248" lon="6.76813">
        <ele>3162</ele>
        <time>2015-06-18T07:11:07.270Z</time>
      </trkpt>
      <trkpt lat="44.58247" lon="6.76826">
        <ele>3166</ele>
        <time>2015-06-18T07:12:05.010Z</time>
      </trkpt>
      <trkpt lat="44.58238" lon="6.76827">
        <ele>3166</ele>
        <time>2015-06-18T07:13:07.410Z</time>
      </trkpt>
      <trkpt lat="44.58195" lon="6.76856">
        <ele>3152</ele>
        <time>2015-06-18T07:14:05.010Z</time>
      </trkpt>
      <trkpt lat="44.58185" lon="6.7687">
        <ele>3152</ele>
        <time>2015-06-18T07:15:05.010Z</time>
      </trkpt>
      <trkpt lat="44.58183" lon="6.76899">
        <ele>3143</ele>
        <time>2015-06-18T07:16:05.210Z</time>
      </trkpt>
      <trkpt lat="44.5817" lon="6.76938">
        <ele>3118</ele>
        <time>2015-06-18T07:17:07.510Z</time>
      </trkpt>
      <trkpt lat="44.58149" lon="6.76958">
        <ele>3115</ele>
        <time>2015-06-18T07:18:07.410Z</time>
      </trkpt>
      <trkpt lat="44.5813" lon="6.76964">
        <ele>3117</ele>
        <time>2015-06-18T07:19:07.610Z</time>
      </trkpt>
      <trkpt lat="44.58104" lon="6.76979">
        <ele>3112</ele>
        <time>2015-06-18T07:20:05.010Z</time>
      </trkpt>
      <trkpt lat="44.58105" lon="6.76969">
        <ele>3112</ele>
        <time>2015-06-18T07:21:04.970Z</time>
      </trkpt>
      <trkpt lat="44.58087" lon="6.7697">
        <ele>3105</ele>
        <time>2015-06-18T07:22:05.010Z</time>
      </trkpt>
      <trkpt lat="44.58074" lon="6.76969">
        <ele>3105</ele>
        <time>2015-06-18T07:23:07.410Z</time>
      </trkpt>
      <trkpt lat="44.58051" lon="6.76963">
        <ele>3101</ele>
        <time>2015-06-18T07:24:04.970Z</time>
      </trkpt>
      <trkpt lat="44.58043" lon="6.76957">
        <ele>3094</ele>
        <time>2015-06-18T07:25:05.010Z</time>
      </trkpt>
      <trkpt lat="44.58033" lon="6.76951">
        <ele>3088</ele>
        <time>2015-06-18T07:26:04.890Z</time>
      </trkpt>
      <trkpt lat="44.58017" lon="6.76946">
        <ele>3088</ele>
        <time>2015-06-18T07:27:05.010Z</time>
      </trkpt>
      <trkpt lat="44.58008" lon="6.76948">
        <ele>3085</ele>
        <time>2015-06-18T07:28:07.010Z</time>
      </trkpt>
      <trkpt lat="44.57994" lon="6.76939">
        <ele>3085</ele>
        <time>2015-06-18T07:29:07.410Z</time>
      </trkpt>
      <trkpt lat="44.57983" lon="6.76916">
        <ele>3078</ele>
        <time>2015-06-18T07:30:08.010Z</time>
      </trkpt>
      <trkpt lat="44.57965" lon="6.76887">
        <ele>3078</ele>
        <time>2015-06-18T07:31:08.610Z</time>
      </trkpt>
      <trkpt lat="44.5795" lon="6.76857">
        <ele>3071</ele>
        <time>2015-06-18T07:32:08.410Z</time>
      </trkpt>
      <trkpt lat="44.57923" lon="6.76816">
        <ele>3052</ele>
        <time>2015-06-18T07:33:07.010Z</time>
      </trkpt>
      <trkpt lat="44.57919" lon="6.76809">
        <ele>3052</ele>
        <time>2015-06-18T07:34:06.510Z</time>
      </trkpt>
      <trkpt lat="44.57914" lon="6.76803">
        <ele>3052</ele>
        <time>2015-06-18T07:35:07.410Z</time>
      </trkpt>
      <trkpt lat="44.57905" lon="6.76792">
        <ele>3052</ele>
        <time>2015-06-18T07:36:07.220Z</time>
      </trkpt>
      <trkpt lat="44.57902" lon="6.76779">
        <ele>3046</ele>
        <time>2015-06-18T07:37:06.410Z</time>
      </trkpt>
      <trkpt lat="44.57903" lon="6.76749">
        <ele>3046</ele>
        <time>2015-06-18T07:38:07.390Z</time>
      </trkpt>
      <trkpt lat="44.57899" lon="6.76726">
        <ele>3040</ele>
        <time>2015-06-18T07:39:07.410Z</time>
      </trkpt>
      <trkpt lat="44.57886" lon="6.76702">
        <ele>3038</ele>
        <time>2015-06-18T07:40:05.010Z</time>
      </trkpt>
      <trkpt lat="44.57882" lon="6.767">
        <ele>3038</ele>
        <time>2015-06-18T07:41:05.010Z</time>
      </trkpt>
      <trkpt lat="44.5787" lon="6.7669">
        <ele>3032</ele>
        <time>2015-06-18T07:42:07.520Z</time>
      </trkpt>
      <trkpt lat="44.57858" lon="6.7668">
        <ele>3033</ele>
        <time>2015-06-18T07:45:07.010Z</time>
      </trkpt>
      <trkpt lat="44.57853" lon="6.76674">
        <ele>3033</ele>
        <time>2015-06-18T07:46:07.010Z</time>
      </trkpt>
      <trkpt lat="44.57837" lon="6.76638">
        <ele>3029</ele>
        <time>2015-06-18T07:47:07.010Z</time>
      </trkpt>
      <trkpt lat="44.57828" lon="6.7662">
        <ele>3031</ele>
        <time>2015-06-18T07:48:07.010Z</time>
      </trkpt>
      <trkpt lat="44.57817" lon="6.76613">
        <ele>3017</ele>
        <time>2015-06-18T07:49:07.410Z</time>
      </trkpt>
      <trkpt lat="44.57811" lon="6.76609">
        <ele>3017</ele>
      </trkpt>
      <trkpt lat="44.57801" lon="6.76616">
        <ele>3017</ele>
      </trkpt>
      <trkpt lat="44.57784" lon="6.76611">
        <ele>3001</ele>
      </trkpt>
      <trkpt lat="44.57769" lon="6.76605">
        <ele>3001</ele>
      </trkpt>
      <trkpt lat="44.57756" lon="6.76585">
        <ele>2989</ele>
      </trkpt>
      <trkpt lat="44.57733" lon="6.76563">
        <ele>2972</ele>
      </trkpt>
      <trkpt lat="44.57734" lon="6.76547">
        <ele>2972</ele>
      </trkpt>
      <trkpt lat="44.5773" lon="6.76532">
        <ele>2968</ele>
      </trkpt>
      <trkpt lat="44.57717" lon="6.76515">
        <ele>2968</ele>
      </trkpt>
      <trkpt lat="44.57707" lon="6.76486">
        <ele>2944</ele>
      </trkpt>
      <trkpt lat="44.57709" lon="6.76461">
        <ele>2962</ele>
      </trkpt>
      <trkpt lat="44.57696" lon="6.76445">
        <ele>2938</ele>
      </trkpt>
      <trkpt lat="44.57688" lon="6.76454">
        <ele>2938</ele>
      </trkpt>
      <trkpt lat="44.57676" lon="6.76496">
        <ele>2934</ele>
      </trkpt>
      <trkpt lat="44.57667" lon="6.76532">
        <ele>2939</ele>
      </trkpt>
      <trkpt lat="44.57657" lon="6.76531">
        <ele>2939</ele>
      </trkpt>
      <trkpt lat="44.57655" lon="6.76552">
        <ele>2947</ele>
      </trkpt>
      <trkpt lat="44.57661" lon="6.76574">
        <ele>2954</ele>
      </trkpt>
      <trkpt lat="44.57655" lon="6.76552">
        <ele>2947</ele>
      </trkpt>
      <trkpt lat="44.57657" lon="6.7653">
        <ele>2939</ele>
      </trkpt>
      <trkpt lat="44.57667" lon="6.76529">
        <ele>2939</ele>
      </trkpt>
      <trkpt lat="44.57677" lon="6.76492">
        <ele>2934</ele>
      </trkpt>
      <trkpt lat="44.57686" lon="6.76458">
        <ele>2938</ele>
      </trkpt>
      <trkpt lat="44.57686" lon="6.76446">
        <ele>2938</ele>
      </trkpt>
      <trkpt lat="44.5769" lon="6.76373">
        <ele>2938</ele>
      </trkpt>
      <trkpt lat="44.57658" lon="6.76349">
        <ele>2917</ele>
      </trkpt>
      <trkpt lat="44.5765" lon="6.76327">
        <ele>2892</ele>
      </trkpt>
      <trkpt lat="44.57633" lon="6.76321">
        <ele>2892</ele>
      </trkpt>
      <trkpt lat="44.57623" lon="6.76284">
        <ele>2872</ele>
      </trkpt>
      <trkpt lat="44.57598" lon="6.7625">
        <ele>2869</ele>
      </trkpt>
      <trkpt lat="44.57595" lon="6.76237">
        <ele>2852</ele>
      </trkpt>
      <trkpt lat="44.57575" lon="6.7621">
        <ele>2848</ele>
      </trkpt>
      <trkpt lat="44.57548" lon="6.76177">
        <ele>2834</ele>
      </trkpt>
      <trkpt lat="44.57542" lon="6.76165">
        <ele>2834</ele>
      </trkpt>
      <trkpt lat="44.57536" lon="6.76151">
        <ele>2825</ele>
      </trkpt>
      <trkpt lat="44.57535" lon="6.76129">
        <ele>2825</ele>
      </trkpt>
      <trkpt lat="44.57523" lon="6.76084">
        <ele>2824</ele>
      </trkpt>
      <trkpt lat="44.57472" lon="6.76054">
        <ele>2825</ele>
      </trkpt>
      <trkpt lat="44.5743" lon="6.76036">
        <ele>2839</ele>
      </trkpt>
      <trkpt lat="44.57395" lon="6.76007">
        <ele>2840</ele>
      </trkpt>
      <trkpt lat="44.57382" lon="6.7599">
        <ele>2840</ele>
      </trkpt>
      <trkpt lat="44.57375" lon="6.75983">
        <ele>2838</ele>
      </trkpt>
      <trkpt lat="44.57331" lon="6.75948">
        <ele>2835</ele>
      </trkpt>
      <trkpt lat="44.57298" lon="6.75928">
        <ele>2819</ele>
      </trkpt>
      <trkpt lat="44.57297" lon="6.75917">
        <ele>2819</ele>
      </trkpt>
      <trkpt lat="44.57288" lon="6.75878">
        <ele>2800</ele>
      </trkpt>
      <trkpt lat="44.57275" lon="6.75845">
        <ele>2783</ele>
      </trkpt>
      <trkpt lat="44.57272" lon="6.75826">
        <ele>2783</ele>
      </trkpt>
      <trkpt lat="44.57257" lon="6.75814">
        <ele>2761</ele>
      </trkpt>
      <trkpt lat="44.57253" lon="6.75803">
        <ele>2761</ele>
      </trkpt>
      <trkpt lat="44.57242" lon="6.75801">
        <ele>2761</ele>
      </trkpt>
      <trkpt lat="44.57234" lon="6.75762">
        <ele>2735</ele>
      </trkpt>
      <trkpt lat="44.5722" lon="6.75735">
        <ele>2730</ele>
      </trkpt>
      <trkpt lat="44.57213" lon="6.75731">
        <ele>2730</ele>
      </trkpt>
      <trkpt lat="44.57211" lon="6.75714">
        <ele>2730</ele>
      </trkpt>
      <trkpt lat="44.57211" lon="6.75711">
        <ele>2730</ele>
      </trkpt>
      <trkpt lat="44.57206" lon="6.75709">
        <ele>2724</ele>
      </trkpt>
      <trkpt lat="44.57201" lon="6.75698">
        <ele>2722</ele>
      </trkpt>
      <trkpt lat="44.57193" lon="6.75685">
        <ele>2722</ele>
      </trkpt>
      <trkpt lat="44.5717" lon="6.75657">
        <ele>2717</ele>
      </trkpt>
      <trkpt lat="44.57167" lon="6.75651">
        <ele>2716</ele>
      </trkpt>
      <trkpt lat="44.57163" lon="6.75641">
        <ele>2716</ele>
      </trkpt>
      <trkpt lat="44.57156" lon="6.75619">
        <ele>2712</ele>
      </trkpt>
      <trkpt lat="44.57155" lon="6.7557">
        <ele>2706</ele>
      </trkpt>
      <trkpt lat="44.57165" lon="6.75521">
        <ele>2691</ele>
      </trkpt>
      <trkpt lat="44.57141" lon="6.75544">
        <ele>2687</ele>
      </trkpt>
      <trkpt lat="44.57143" lon="6.75509">
        <ele>2674</ele>
      </trkpt>
      <trkpt lat="44.5714" lon="6.75469">
        <ele>2671</ele>
      </trkpt>
      <trkpt lat="44.57128" lon="6.75481">
        <ele>2671</ele>
      </trkpt>
      <trkpt lat="44.57088" lon="6.75508">
        <ele>2662</ele>
      </trkpt>
      <trkpt lat="44.57027" lon="6.75536">
        <ele>2647</ele>
      </trkpt>
      <trkpt lat="44.57013" lon="6.75546">
        <ele>2636</ele>
      </trkpt>
      <trkpt lat="44.56995" lon="6.75571">
        <ele>2637</ele>
      </trkpt>
      <trkpt lat="44.56966" lon="6.75589">
        <ele>2626</ele>
      </trkpt>
      <trkpt lat="44.56947" lon="6.75598">
        <ele>2621</ele>
      </trkpt>
      <trkpt lat="44.56923" lon="6.75592">
        <ele>2612</ele>
      </trkpt>
      <trkpt lat="44.56897" lon="6.75597">
        <ele>2606</ele>
      </trkpt>
      <trkpt lat="44.56881" lon="6.75595">
        <ele>2612</ele>
      </trkpt>
      <trkpt lat="44.56865" lon="6.756">
        <ele>2603</ele>
      </trkpt>
      <trkpt lat="44.56848" lon="6.7561">
        <ele>2603</ele>
      </trkpt>
      <trkpt lat="44.56818" lon="6.75636">
        <ele>2586</ele>
      </trkpt>
      <trkpt lat="44.568" lon="6.75642">
        <ele>2586</ele>
      </trkpt>
      <trkpt lat="44.56786" lon="6.7564">
        <ele>2580</ele>
      </trkpt>
      <trkpt lat="44.56778" lon="6.75647">
        <ele>2580</ele>
      </trkpt>
      <trkpt lat="44.56762" lon="6.75655">
        <ele>2574</ele>
      </trkpt>
      <trkpt lat="44.56757" lon="6.75656">
        <ele>2574</ele>
      </trkpt>
      <trkpt lat="44.56752" lon="6.75659">
        <ele>2574</ele>
      </trkpt>
      <trkpt lat="44.56744" lon="6.7566">
        <ele>2574</ele>
      </trkpt>
      <trkpt lat="44.56738" lon="6.7567">
        <ele>2574</ele>
      </trkpt>
      <trkpt lat="44.56727" lon="6.75675">
        <ele>2568</ele>
      </trkpt>
      <trkpt lat="44.56719" lon="6.7568">
        <ele>2568</ele>
      </trkpt>
      <trkpt lat="44.56704" lon="6.75697">
        <ele>2556</ele>
      </trkpt>
      <trkpt lat="44.56692" lon="6.75695">
        <ele>2556</ele>
      </trkpt>
      <trkpt lat="44.56681" lon="6.75692">
        <ele>2556</ele>
      </trkpt>
      <trkpt lat="44.56681" lon="6.75707">
        <ele>2556</ele>
      </trkpt>
      <trkpt lat="44.56667" lon="6.75702">
        <ele>2546</ele>
      </trkpt>
      <trkpt lat="44.56658" lon="6.75691">
        <ele>2546</ele>
      </trkpt>
      <trkpt lat="44.56654" lon="6.75697">
        <ele>2546</ele>
      </trkpt>
      <trkpt lat="44.56639" lon="6.75711">
        <ele>2537</ele>
      </trkpt>
      <trkpt lat="44.56627" lon="6.75716">
        <ele>2537</ele>
      </trkpt>
      <trkpt lat="44.56609" lon="6.75745">
        <ele>2523</ele>
      </trkpt>
      <trkpt lat="44.56582" lon="6.75763">
        <ele>2516</ele>
      </trkpt>
      <trkpt lat="44.56566" lon="6.75773">
        <ele>2507</ele>
      </trkpt>
      <trkpt lat="44.56557" lon="6.75785">
        <ele>2507</ele>
      </trkpt>
      <trkpt lat="44.56544" lon="6.75781">
        <ele>2507</ele>
      </trkpt>
      <trkpt lat="44.56522" lon="6.75781">
        <ele>2497</ele>
      </trkpt>
      <trkpt lat="44.56483" lon="6.75806">
        <ele>2486</ele>
      </trkpt>
      <trkpt lat="44.56446" lon="6.75805">
        <ele>2476</ele>
      </trkpt>
      <trkpt lat="44.564" lon="6.75835">
        <ele>2462</ele>
      </trkpt>
      <trkpt lat="44.5629" lon="6.75889">
        <ele>2441</ele>
      </trkpt>
      <trkpt lat="44.56248" lon="6.75907">
        <ele>2439</ele>
      </trkpt>
      <trkpt lat="44.56223" lon="6.75925">
        <ele>2435</ele>
      </trkpt>
      <trkpt lat="44.56201" lon="6.7594">
        <ele>2424</ele>
      </trkpt>
      <trkpt lat="44.56165" lon="6.7595">
        <ele>2417</ele>
      </trkpt>
      <trkpt lat="44.56146" lon="6.75954">
        <ele>2410</ele>
      </trkpt>
      <trkpt lat="44.56112" lon="6.75947">
        <ele>2396</ele>
      </trkpt>
      <trkpt lat="44.56097" lon="6.75955">
        <ele>2385</ele>
      </trkpt>
      <trkpt lat="44.56059" lon="6.75959">
        <ele>2384</ele>
      </trkpt>
      <trkpt lat="44.55988" lon="6.75969">
        <ele>2369</ele>
      </trkpt>
      <trkpt lat="44.55944" lon="6.7599">
        <ele>2356</ele>
      </trkpt>
      <trkpt lat="44.55889" lon="6.76006">
        <ele>2348</ele>
      </trkpt>
      <trkpt lat="44.55852" lon="6.76025">
        <ele>2341</ele>
      </trkpt>
      <trkpt lat="44.5584" lon="6.76027">
        <ele>2329</ele>
      </trkpt>
      <trkpt lat="44.55793" lon="6.76069">
        <ele>2320</ele>
      </trkpt>
      <trkpt lat="44.5577" lon="6.76076">
        <ele>2313</ele>
      </trkpt>
      <trkpt lat="44.55736" lon="6.76108">
        <ele>2304</ele>
      </trkpt>
      <trkpt lat="44.55704" lon="6.76136">
        <ele>2300</ele>
      </trkpt>
      <trkpt lat="44.55644" lon="6.76174">
        <ele>2290</ele>
      </trkpt>
      <trkpt lat="44.55605" lon="6.76217">
        <ele>2286</ele>
      </trkpt>
      <trkpt lat="44.55551" lon="6.76231">
        <ele>2278</ele>
      </trkpt>
      <trkpt lat="44.55513" lon="6.76284">
        <ele>2267</ele>
      </trkpt>
      <trkpt lat="44.5547" lon="6.76325">
        <ele>2261</ele>
      </trkpt>
      <trkpt lat="44.55439" lon="6.76369">
        <ele>2256</ele>
      </trkpt>
      <trkpt lat="44.55426" lon="6.7639">
        <ele>2249</ele>
      </trkpt>
      <trkpt lat="44.55412" lon="6.76398">
        <ele>2249</ele>
      </trkpt>
      <trkpt lat="44.55389" lon="6.76419">
        <ele>2243</ele>
      </trkpt>
      <trkpt lat="44.55364" lon="6.76447">
        <ele>2234</ele>
      </trkpt>
      <trkpt lat="44.5534" lon="6.76466">
        <ele>2231</ele>
      </trkpt>
      <trkpt lat="44.5531" lon="6.7649">
        <ele>2231</ele>
      </trkpt>
      <trkpt lat="44.55269" lon="6.76506">
        <ele>2229</ele>
      </trkpt>
      <trkpt lat="44.55235" lon="6.76533">
        <ele>2219</ele>
      </trkpt>
      <trkpt lat="44.55219" lon="6.76552">
        <ele>2220</ele>
      </trkpt>
      <trkpt lat="44.55208" lon="6.76571">
        <ele>2214</ele>
      </trkpt>
      <trkpt lat="44.55176" lon="6.76602">
        <ele>2208</ele>
      </trkpt>
      <trkpt lat="44.55166" lon="6.76622">
        <ele>2208</ele>
      </trkpt>
      <trkpt lat="44.55158" lon="6.76635">
        <ele>2206</ele>
      </trkpt>
      <trkpt lat="44.55144" lon="6.76667">
        <ele>2202</ele>
      </trkpt>
      <trkpt lat="44.55129" lon="6.76706">
        <ele>2201</ele>
      </trkpt>
      <trkpt lat="44.55111" lon="6.76756">
        <ele>2189</ele>
      </trkpt>
      <trkpt lat="44.5509" lon="6.76788">
        <ele>2182</ele>
      </trkpt>
      <trkpt lat="44.55075" lon="6.76789">
        <ele>2182</ele>
      </trkpt>
      <trkpt lat="44.55072" lon="6.76816">
        <ele>2181</ele>
      </trkpt>
      <trkpt lat="44.55064" lon="6.76845">
        <ele>2181</ele>
      </trkpt>
      <trkpt lat="44.55047" lon="6.76891">
        <ele>2180</ele>
      </trkpt>
      <trkpt lat="44.55024" lon="6.7696">
        <ele>2186</ele>
      </trkpt>
      <trkpt lat="44.54984" lon="6.76977">
        <ele>2154</ele>
      </trkpt>
      <trkpt lat="44.54966" lon="6.77">
        <ele>2160</ele>
      </trkpt>
      <trkpt lat="44.54952" lon="6.77004">
        <ele>2152</ele>
      </trkpt>
      <trkpt lat="44.54931" lon="6.77033">
        <ele>2157</ele>
      </trkpt>
      <trkpt lat="44.5491" lon="6.77055">
        <ele>2157</ele>
      </trkpt>
      <trkpt lat="44.54884" lon="6.77079">
        <ele>2149</ele>
      </trkpt>
      <trkpt lat="44.54853" lon="6.77116">
        <ele>2141</ele>
      </trkpt>
      <trkpt lat="44.5482" lon="6.77144">
        <ele>2140</ele>
      </trkpt>
      <trkpt lat="44.54806" lon="6.77173">
        <ele>2126</ele>
      </trkpt>
      <trkpt lat="44.54797" lon="6.77185">
        <ele>2119</ele>
      </trkpt>
      <trkpt lat="44.54788" lon="6.77198">
        <ele>2111</ele>
      </trkpt>
      <trkpt lat="44.54752" lon="6.77251">
        <ele>2093</ele>
      </trkpt>
      <trkpt lat="44.54745" lon="6.7725">
        <ele>2093</ele>
      </trkpt>
      <trkpt lat="44.54736" lon="6.77256">
        <ele>2081</ele>
      </trkpt>
      <trkpt lat="44.54736" lon="6.77263">
        <ele>2081</ele>
      </trkpt>
      <trkpt lat="44.54721" lon="6.77285">
        <ele>2074</ele>
      </trkpt>
      <trkpt lat="44.5471" lon="6.7729">
        <ele>2074</ele>
      </trkpt>
      <trkpt lat="44.54686" lon="6.77302">
        <ele>2054</ele>
      </trkpt>
      <trkpt lat="44.54667" lon="6.77328">
        <ele>2039</ele>
      </trkpt>
      <trkpt lat="44.54647" lon="6.77356">
        <ele>2021</ele>
      </trkpt>
      <trkpt lat="44.54645" lon="6.77352">
        <ele>2021</ele>
      </trkpt>
      <trkpt lat="44.54633" lon="6.77367">
        <ele>2021</ele>
      </trkpt>
      <trkpt lat="44.54627" lon="6.77394">
        <ele>2015</ele>
      </trkpt>
      <trkpt lat="44.54622" lon="6.77426">
        <ele>1996</ele>
      </trkpt>
      <trkpt lat="44.54595" lon="6.77431">
        <ele>1983</ele>
      </trkpt>
      <trkpt lat="44.54591" lon="6.7743">
        <ele>1988</ele>
      </trkpt>
      <trkpt lat="44.54581" lon="6.77432">
        <ele>1983</ele>
      </trkpt>
      <trkpt lat="44.54569" lon="6.77423">
        <ele>1975</ele>
      </trkpt>
      <trkpt lat="44.54556" lon="6.77436">
        <ele>1968</ele>
      </trkpt>
      <trkpt lat="44.5453" lon="6.77465">
        <ele>1953</ele>
      </trkpt>
      <trkpt lat="44.54518" lon="6.77488">
        <ele>1947</ele>
      </trkpt>
      <trkpt lat="44.54492" lon="6.77511">
        <ele>1934</ele>
      </trkpt>
      <trkpt lat="44.5448" lon="6.77529">
        <ele>1918</ele>
      </trkpt>
      <trkpt lat="44.54485" lon="6.77562">
        <ele>1913</ele>
      </trkpt>
      <trkpt lat="44.54492" lon="6.77599">
        <ele>1927</ele>
      </trkpt>
      <trkpt lat="44.54477" lon="6.77616">
        <ele>1913</ele>
      </trkpt>
      <trkpt lat="44.54459" lon="6.77616">
        <ele>1913</ele>
      </trkpt>
      <trkpt lat="44.54427" lon="6.77651">
        <ele>1883</ele>
      </trkpt>
      <trkpt lat="44.54404" lon="6.77672">
        <ele>1882</ele>
      </trkpt>
      <trkpt lat="44.54386" lon="6.77665">
        <ele>1863</ele>
      </trkpt>
      <trkpt lat="44.54388" lon="6.7768">
        <ele>1863</ele>
      </trkpt>
      <trkpt lat="44.54366" lon="6.77671">
        <ele>1855</ele>
      </trkpt>
      <trkpt lat="44.54356" lon="6.77686">
        <ele>1846</ele>
      </trkpt>
      <trkpt lat="44.54352" lon="6.77772">
        <ele>1839</ele>
      </trkpt>
      <trkpt lat="44.54352" lon="6.77772">
        <ele>1839</ele>
      </trkpt>
      <trkpt lat="44.54349" lon="6.7778">
        <ele>1839</ele>
      </trkpt>
      <trkpt lat="44.54347" lon="6.77792">
        <ele>1821</ele>
      </trkpt>
      <trkpt lat="44.54343" lon="6.77804">
        <ele>1821</ele>
      </trkpt>
      <trkpt lat="44.54323" lon="6.77849">
        <ele>1829</ele>
      </trkpt>
      <trkpt lat="44.54318" lon="6.77859">
        <ele>1788</ele>
      </trkpt>
      <trkpt lat="44.54312" lon="6.7787">
        <ele>1788</ele>
      </trkpt>
      <trkpt lat="44.54302" lon="6.77883">
        <ele>1794</ele>
      </trkpt>
      <trkpt lat="44.54288" lon="6.77902">
        <ele>1777</ele>
      </trkpt>
      <trkpt lat="44.54282" lon="6.77911">
        <ele>1778</ele>
      </trkpt>
      <trkpt lat="44.54276" lon="6.77918">
        <ele>1778</ele>
      </trkpt>
      <trkpt lat="44.54271" lon="6.77922">
        <ele>1778</ele>
      </trkpt>
      <trkpt lat="44.54271" lon="6.77923">
        <ele>1778</ele>
      </trkpt>
      <trkpt lat="44.54271" lon="6.77923">
        <ele>1778</ele>
      </trkpt>
      <trkpt lat="44.54271" lon="6.77923">
        <ele>1778</ele>
      </trkpt>
      <trkpt lat="44.54271" lon="6.77922">
        <ele>1778</ele>
      </trkpt>
      <trkpt lat="44.54262" lon="6.77928">
        <ele>1758</ele>
      </trkpt>
      <trkpt lat="44.54247" lon="6.77941">
        <ele>1759</ele>
      </trkpt>
      <trkpt lat="44.54243" lon="6.77944">
        <ele>1759</ele>
      </trkpt>
      <trkpt lat="44.5424" lon="6.77954">
        <ele>1759</ele>
      </trkpt>
      <trkpt lat="44.54237" lon="6.77964">
        <ele>1760</ele>
      </trkpt>
      <trkpt lat="44.54231" lon="6.77981">
        <ele>1737</ele>
      </trkpt>
      <trkpt lat="44.54224" lon="6.77993">
        <ele>1736</ele>
      </trkpt>
      <trkpt lat="44.54218" lon="6.78001">
        <ele>1736</ele>
      </trkpt>
      <trkpt lat="44.54211" lon="6.78011">
        <ele>1736</ele>
      </trkpt>
      <trkpt lat="44.54206" lon="6.78025">
        <ele>1723</ele>
      </trkpt>
      <trkpt lat="44.542" lon="6.78036">
        <ele>1723</ele>
      </trkpt>
      <trkpt lat="44.54193" lon="6.78049">
        <ele>1728</ele>
      </trkpt>
      <trkpt lat="44.54187" lon="6.7806">
        <ele>1728</ele>
      </trkpt>
      <trkpt lat="44.54182" lon="6.78073">
        <ele>1733</ele>
      </trkpt>
      <trkpt lat="44.54179" lon="6.78079">
        <ele>1715</ele>
      </trkpt>
      <trkpt lat="44.54178" lon="6.7808">
        <ele>1715</ele>
      </trkpt>
      <trkpt lat="44.54179" lon="6.7808">
        <ele>1715</ele>
      </trkpt>
      <trkpt lat="44.54179" lon="6.7808">
        <ele>1715</ele>
      </trkpt>
      <trkpt lat="44.54179" lon="6.7808">
        <ele>1715</ele>
      </trkpt>
      <trkpt lat="44.54178" lon="6.7808">
        <ele>1715</ele>
      </trkpt>
      <trkpt lat="44.54176" lon="6.78084">
        <ele>1715</ele>
      </trkpt>
      <trkpt lat="44.54171" lon="6.7809">
        <ele>1715</ele>
      </trkpt>
      <trkpt lat="44.54165" lon="6.78095">
        <ele>1715</ele>
      </trkpt>
      <trkpt lat="44.54155" lon="6.78107">
        <ele>1714</ele>
      </trkpt>
      <trkpt lat="44.54142" lon="6.78122">
        <ele>1698</ele>
      </trkpt>
      <trkpt lat="44.54138" lon="6.78128">
        <ele>1696</ele>
      </trkpt>
      <trkpt lat="44.54133" lon="6.78144">
        <ele>1696</ele>
      </trkpt>
      <trkpt lat="44.54125" lon="6.78161">
        <ele>1680</ele>
      </trkpt>
      <trkpt lat="44.54119" lon="6.78175">
        <ele>1680</ele>
      </trkpt>
      <trkpt lat="44.54113" lon="6.78188">
        <ele>1681</ele>
      </trkpt>
      <trkpt lat="44.54105" lon="6.78206">
        <ele>1681</ele>
      </trkpt>
      <trkpt lat="44.541" lon="6.78219">
        <ele>1681</ele>
      </trkpt>
      <trkpt lat="44.5409" lon="6.78238">
        <ele>1665</ele>
      </trkpt>
      <trkpt lat="44.54084" lon="6.7825">
        <ele>1665</ele>
      </trkpt>
      <trkpt lat="44.54081" lon="6.78259">
        <ele>1665</ele>
      </trkpt>
      <trkpt lat="44.54076" lon="6.78277">
        <ele>1664</ele>
      </trkpt>
      <trkpt lat="44.54073" lon="6.78286">
        <ele>1664</ele>
      </trkpt>
      <trkpt lat="44.5407" lon="6.78303">
        <ele>1659</ele>
      </trkpt>
      <trkpt lat="44.54069" lon="6.78309">
        <ele>1645</ele>
      </trkpt>
      <trkpt lat="44.54069" lon="6.78314">
        <ele>1645</ele>
      </trkpt>
      <trkpt lat="44.54071" lon="6.78327">
        <ele>1651</ele>
      </trkpt>
      <trkpt lat="44.54074" lon="6.78339">
        <ele>1651</ele>
      </trkpt>
      <trkpt lat="44.54075" lon="6.78352">
        <ele>1645</ele>
      </trkpt>
      <trkpt lat="44.54075" lon="6.78361">
        <ele>1645</ele>
      </trkpt>
      <trkpt lat="44.54075" lon="6.78368">
        <ele>1645</ele>
      </trkpt>
      <trkpt lat="44.54073" lon="6.78381">
        <ele>1641</ele>
      </trkpt>
      <trkpt lat="44.54072" lon="6.78396">
        <ele>1641</ele>
      </trkpt>
      <trkpt lat="44.54072" lon="6.78406">
        <ele>1637</ele>
      </trkpt>
      <trkpt lat="44.54071" lon="6.78416">
        <ele>1637</ele>
      </trkpt>
      <trkpt lat="44.54069" lon="6.78429">
        <ele>1628</ele>
      </trkpt>
      <trkpt lat="44.5407" lon="6.78429">
        <ele>1637</ele>
      </trkpt>
      <trkpt lat="44.5407" lon="6.78429">
        <ele>1637</ele>
      </trkpt>
    </trkseg>
  </trk>
</gpx>